sensor_id;sensor_type;location;lat;lon;timestamp;temperature;humidity
68189;DHT22;55008;47.514;19.218;2022-11-15T00:01:39;2.48;99.99
68189;DHT22;55008;47.514;19.218;2022-11-15T00:04:07;2.47;99.99
68189;DHT22;55008;47.514;19.218;2022-11-15T00:06:38;2.47;99.99
68189;DHT22;55008;47.514;19.218;2022-11-15T00:09:08;2.51;99.99
68189;DHT22;55008;47.514;19.218;2022-11-15T00:11:36;2.51;99.99
68189;DHT22;55008;47.514;19.218;2022-11-15T00:14:06;2.50;99.99
68189;DHT22;55008;47.514;19.218;2022-11-15T00:16:35;2.54;99.99
68189;DHT22;55008;47.514;19.218;2022-11-15T00:19:04;2.53;99.99
68189;DHT22;55008;47.514;19.218;2022-11-15T00:21:33;2.53;99.99
68189;DHT22;55008;47.514;19.218;2022-11-15T00:24:04;2.51;99.99
68189;DHT22;55008;47.514;19.218;2022-11-15T00:26:32;2.48;99.99
68189;DHT22;55008;47.514;19.218;2022-11-15T00:29:01;2.46;99.99
68189;DHT22;55008;47.514;19.218;2022-11-15T00:31:29;2.43;99.99
68189;DHT22;55008;47.514;19.218;2022-11-15T00:33:58;2.46;99.99
68189;DHT22;55008;47.514;19.218;2022-11-15T00:36:28;2.50;99.99
68189;DHT22;55008;47.514;19.218;2022-11-15T00:39:04;2.53;99.99
68189;DHT22;55008;47.514;19.218;2022-11-15T00:41:33;2.53;99.99
68189;DHT22;55008;47.514;19.218;2022-11-15T00:44:01;2.57;99.99
68189;DHT22;55008;47.514;19.218;2022-11-15T00:46:30;2.60;99.99
68189;DHT22;55008;47.514;19.218;2022-11-15T00:48:58;2.64;99.99
68189;DHT22;55008;47.514;19.218;2022-11-15T00:51:26;2.60;99.99
68189;DHT22;55008;47.514;19.218;2022-11-15T00:53:58;2.74;99.99
68189;DHT22;55008;47.514;19.218;2022-11-15T00:56:31;2.81;99.99
68189;DHT22;55008;47.514;19.218;2022-11-15T00:58:59;2.76;99.99
68189;DHT22;55008;47.514;19.218;2022-11-15T01:01:28;2.77;99.99
68189;DHT22;55008;47.514;19.218;2022-11-15T01:03:57;2.88;99.99
68189;DHT22;55008;47.514;19.218;2022-11-15T01:06:27;3.05;99.99
68189;DHT22;55008;47.514;19.218;2022-11-15T01:08:56;3.11;99.99
68189;DHT22;55008;47.514;19.218;2022-11-15T01:11:27;3.13;99.99
68189;DHT22;55008;47.514;19.218;2022-11-15T01:13:56;3.13;99.99
68189;DHT22;55008;47.514;19.218;2022-11-15T01:16:25;3.22;99.99
68189;DHT22;55008;47.514;19.218;2022-11-15T01:18:53;3.20;99.99
68189;DHT22;55008;47.514;19.218;2022-11-15T01:21:22;3.15;99.99
68189;DHT22;55008;47.514;19.218;2022-11-15T01:23:54;3.19;99.99
68189;DHT22;55008;47.514;19.218;2022-11-15T01:26:24;3.32;99.99
68189;DHT22;55008;47.514;19.218;2022-11-15T01:28:53;3.32;99.99
68189;DHT22;55008;47.514;19.218;2022-11-15T01:31:23;3.37;99.99
68189;DHT22;55008;47.514;19.218;2022-11-15T01:33:52;3.43;99.99
68189;DHT22;55008;47.514;19.218;2022-11-15T01:36:22;3.47;99.99
68189;DHT22;55008;47.514;19.218;2022-11-15T01:38:53;3.47;99.99
68189;DHT22;55008;47.514;19.218;2022-11-15T01:41:24;3.43;99.99
68189;DHT22;55008;47.514;19.218;2022-11-15T01:43:56;3.43;99.99
68189;DHT22;55008;47.514;19.218;2022-11-15T01:46:33;3.50;99.99
68189;DHT22;55008;47.514;19.218;2022-11-15T01:49:05;3.46;99.99
68189;DHT22;55008;47.514;19.218;2022-11-15T01:51:39;3.53;99.99
68189;DHT22;55008;47.514;19.218;2022-11-15T01:54:10;3.53;99.99
68189;DHT22;55008;47.514;19.218;2022-11-15T01:56:45;3.60;99.99
68189;DHT22;55008;47.514;19.218;2022-11-15T01:59:14;3.54;99.99
68189;DHT22;55008;47.514;19.218;2022-11-15T02:01:47;3.57;99.99
68189;DHT22;55008;47.514;19.218;2022-11-15T02:04:24;3.60;99.99
68189;DHT22;55008;47.514;19.218;2022-11-15T02:06:59;3.64;99.99
68189;DHT22;55008;47.514;19.218;2022-11-15T02:09:31;3.63;99.99
68189;DHT22;55008;47.514;19.218;2022-11-15T02:11:59;3.71;99.99
68189;DHT22;55008;47.514;19.218;2022-11-15T02:14:29;3.81;99.99
68189;DHT22;55008;47.514;19.218;2022-11-15T02:17:08;3.85;99.99
68189;DHT22;55008;47.514;19.218;2022-11-15T02:23:47;3.84;99.99
68189;DHT22;55008;47.514;19.218;2022-11-15T02:26:48;3.88;99.99
68189;DHT22;55008;47.514;19.218;2022-11-15T02:29:32;3.87;99.99
68189;DHT22;55008;47.514;19.218;2022-11-15T02:32:09;3.97;99.99
68189;DHT22;55008;47.514;19.218;2022-11-15T02:34:44;3.94;99.99
68189;DHT22;55008;47.514;19.218;2022-11-15T02:37:21;3.91;99.99
68189;DHT22;55008;47.514;19.218;2022-11-15T02:40:01;4.01;99.99
68189;DHT22;55008;47.514;19.218;2022-11-15T02:42:38;4.02;99.99
68189;DHT22;55008;47.514;19.218;2022-11-15T02:45:37;4.05;99.99
68189;DHT22;55008;47.514;19.218;2022-11-15T02:48:12;4.02;99.99
68189;DHT22;55008;47.514;19.218;2022-11-15T02:50:42;3.98;99.99
68189;DHT22;55008;47.514;19.218;2022-11-15T02:53:13;3.98;99.99
68189;DHT22;55008;47.514;19.218;2022-11-15T02:55:44;4.02;99.99
68189;DHT22;55008;47.514;19.218;2022-11-15T03:01:29;3.98;99.99
68189;DHT22;55008;47.514;19.218;2022-11-15T03:04:10;4.02;99.99
68189;DHT22;55008;47.514;19.218;2022-11-15T03:06:49;4.01;99.99
68189;DHT22;55008;47.514;19.218;2022-11-15T03:09:27;4.01;99.99
68189;DHT22;55008;47.514;19.218;2022-11-15T03:12:02;4.01;99.99
68189;DHT22;55008;47.514;19.218;2022-11-15T03:14:38;4.02;99.99
68189;DHT22;55008;47.514;19.218;2022-11-15T03:17:12;4.04;99.99
68189;DHT22;55008;47.514;19.218;2022-11-15T03:19:47;4.09;99.99
68189;DHT22;55008;47.514;19.218;2022-11-15T03:22:19;4.15;99.99
68189;DHT22;55008;47.514;19.218;2022-11-15T03:24:52;4.15;99.99
68189;DHT22;55008;47.514;19.218;2022-11-15T03:27:23;4.22;99.99
68189;DHT22;55008;47.514;19.218;2022-11-15T03:29:57;4.19;99.99
68189;DHT22;55008;47.514;19.218;2022-11-15T03:32:30;4.18;99.99
68189;DHT22;55008;47.514;19.218;2022-11-15T03:35:14;4.25;99.99
68189;DHT22;55008;47.514;19.218;2022-11-15T03:37:49;4.23;99.99
68189;DHT22;55008;47.514;19.218;2022-11-15T03:40:24;4.26;99.99
68189;DHT22;55008;47.514;19.218;2022-11-15T03:43:00;4.28;99.99
68189;DHT22;55008;47.514;19.218;2022-11-15T03:45:36;4.25;99.99
68189;DHT22;55008;47.514;19.218;2022-11-15T03:48:10;4.21;99.99
68189;DHT22;55008;47.514;19.218;2022-11-15T03:50:43;4.18;99.99
68189;DHT22;55008;47.514;19.218;2022-11-15T03:53:13;4.14;99.99
68189;DHT22;55008;47.514;19.218;2022-11-15T03:55:41;4.15;99.99
68189;DHT22;55008;47.514;19.218;2022-11-15T03:58:10;4.25;99.99
68189;DHT22;55008;47.514;19.218;2022-11-15T04:00:41;4.18;99.99
68189;DHT22;55008;47.514;19.218;2022-11-15T04:03:10;4.18;99.99
68189;DHT22;55008;47.514;19.218;2022-11-15T04:05:45;4.22;99.99
68189;DHT22;55008;47.514;19.218;2022-11-15T04:08:13;4.16;99.99
68189;DHT22;55008;47.514;19.218;2022-11-15T04:10:41;4.22;99.99
68189;DHT22;55008;47.514;19.218;2022-11-15T04:13:11;4.28;99.99
68189;DHT22;55008;47.514;19.218;2022-11-15T04:15:42;4.41;99.99
68189;DHT22;55008;47.514;19.218;2022-11-15T04:18:11;4.41;99.99
68189;DHT22;55008;47.514;19.218;2022-11-15T04:20:39;4.35;99.99
68189;DHT22;55008;47.514;19.218;2022-11-15T04:23:27;4.33;99.99
68189;DHT22;55008;47.514;19.218;2022-11-15T04:26:24;4.28;99.99
68189;DHT22;55008;47.514;19.218;2022-11-15T04:28:56;4.33;99.99
68189;DHT22;55008;47.514;19.218;2022-11-15T04:31:41;4.31;99.99
68189;DHT22;55008;47.514;19.218;2022-11-15T04:34:11;4.18;99.99
68189;DHT22;55008;47.514;19.218;2022-11-15T04:36:39;4.23;99.99
68189;DHT22;55008;47.514;19.218;2022-11-15T04:39:32;4.23;99.99
68189;DHT22;55008;47.514;19.218;2022-11-15T04:42:00;4.26;99.99
68189;DHT22;55008;47.514;19.218;2022-11-15T04:44:28;4.36;99.99
68189;DHT22;55008;47.514;19.218;2022-11-15T04:46:58;4.33;99.99
68189;DHT22;55008;47.514;19.218;2022-11-15T04:49:26;4.28;99.99
68189;DHT22;55008;47.514;19.218;2022-11-15T04:51:55;4.36;99.99
68189;DHT22;55008;47.514;19.218;2022-11-15T04:54:24;4.33;99.99
68189;DHT22;55008;47.514;19.218;2022-11-15T04:56:55;4.48;99.99
68189;DHT22;55008;47.514;19.218;2022-11-15T04:59:25;4.43;99.99
68189;DHT22;55008;47.514;19.218;2022-11-15T05:01:54;4.39;99.99
68189;DHT22;55008;47.514;19.218;2022-11-15T05:04:23;4.35;99.99
68189;DHT22;55008;47.514;19.218;2022-11-15T05:06:51;4.35;99.99
68189;DHT22;55008;47.514;19.218;2022-11-15T05:09:20;4.46;99.99
68189;DHT22;55008;47.514;19.218;2022-11-15T05:11:49;4.46;99.99
68189;DHT22;55008;47.514;19.218;2022-11-15T05:14:19;4.46;99.99
68189;DHT22;55008;47.514;19.218;2022-11-15T05:16:48;4.52;99.99
68189;DHT22;55008;47.514;19.218;2022-11-15T05:19:16;4.56;99.99
68189;DHT22;55008;47.514;19.218;2022-11-15T05:21:45;4.54;99.99
68189;DHT22;55008;47.514;19.218;2022-11-15T05:24:14;4.52;99.99
68189;DHT22;55008;47.514;19.218;2022-11-15T05:26:43;4.53;99.99
68189;DHT22;55008;47.514;19.218;2022-11-15T05:29:11;4.50;99.99
68189;DHT22;55008;47.514;19.218;2022-11-15T05:31:41;4.50;99.99
68189;DHT22;55008;47.514;19.218;2022-11-15T05:34:10;4.57;99.99
68189;DHT22;55008;47.514;19.218;2022-11-15T05:36:42;4.59;99.99
68189;DHT22;55008;47.514;19.218;2022-11-15T05:39:11;4.60;99.99
68189;DHT22;55008;47.514;19.218;2022-11-15T05:41:42;4.60;99.99
68189;DHT22;55008;47.514;19.218;2022-11-15T05:44:15;4.62;99.99
68189;DHT22;55008;47.514;19.218;2022-11-15T05:46:48;4.70;99.99
68189;DHT22;55008;47.514;19.218;2022-11-15T05:49:19;4.67;99.99
68189;DHT22;55008;47.514;19.218;2022-11-15T05:51:49;4.63;99.99
68189;DHT22;55008;47.514;19.218;2022-11-15T05:54:19;4.74;99.99
68189;DHT22;55008;47.514;19.218;2022-11-15T05:56:52;4.80;99.99
68189;DHT22;55008;47.514;19.218;2022-11-15T05:59:23;4.80;99.99
68189;DHT22;55008;47.514;19.218;2022-11-15T06:01:53;4.83;99.99
68189;DHT22;55008;47.514;19.218;2022-11-15T06:04:23;4.85;99.99
68189;DHT22;55008;47.514;19.218;2022-11-15T06:06:52;4.88;99.99
68189;DHT22;55008;47.514;19.218;2022-11-15T06:09:22;4.90;99.99
68189;DHT22;55008;47.514;19.218;2022-11-15T06:11:52;4.83;99.99
68189;DHT22;55008;47.514;19.218;2022-11-15T06:14:23;4.84;99.99
68189;DHT22;55008;47.514;19.218;2022-11-15T06:16:55;4.87;99.99
68189;DHT22;55008;47.514;19.218;2022-11-15T06:19:27;4.92;99.99
68189;DHT22;55008;47.514;19.218;2022-11-15T06:21:59;4.92;99.99
68189;DHT22;55008;47.514;19.218;2022-11-15T06:24:32;4.94;99.99
68189;DHT22;55008;47.514;19.218;2022-11-15T06:27:03;4.94;99.99
68189;DHT22;55008;47.514;19.218;2022-11-15T06:29:32;4.94;99.99
68189;DHT22;55008;47.514;19.218;2022-11-15T06:32:02;5.05;99.99
68189;DHT22;55008;47.514;19.218;2022-11-15T06:34:33;5.02;99.99
68189;DHT22;55008;47.514;19.218;2022-11-15T06:37:04;5.02;99.99
68189;DHT22;55008;47.514;19.218;2022-11-15T06:39:34;5.04;99.99
68189;DHT22;55008;47.514;19.218;2022-11-15T06:42:04;5.08;99.99
68189;DHT22;55008;47.514;19.218;2022-11-15T06:44:38;5.08;99.99
68189;DHT22;55008;47.514;19.218;2022-11-15T06:47:08;5.14;99.99
68189;DHT22;55008;47.514;19.218;2022-11-15T06:49:36;5.17;99.99
68189;DHT22;55008;47.514;19.218;2022-11-15T06:52:17;5.17;99.99
68189;DHT22;55008;47.514;19.218;2022-11-15T06:54:46;5.21;99.99
68189;DHT22;55008;47.514;19.218;2022-11-15T06:57:15;5.21;99.99
68189;DHT22;55008;47.514;19.218;2022-11-15T06:59:49;5.29;99.99
68189;DHT22;55008;47.514;19.218;2022-11-15T07:02:23;5.40;99.99
68189;DHT22;55008;47.514;19.218;2022-11-15T07:04:53;5.43;99.99
68189;DHT22;55008;47.514;19.218;2022-11-15T07:07:25;5.45;99.99
68189;DHT22;55008;47.514;19.218;2022-11-15T07:09:57;5.50;99.79
68189;DHT22;55008;47.514;19.218;2022-11-15T07:12:27;5.48;99.53
68189;DHT22;55008;47.514;19.218;2022-11-15T07:15:02;5.48;99.81
68189;DHT22;55008;47.514;19.218;2022-11-15T07:17:33;5.49;99.99
68189;DHT22;55008;47.514;19.218;2022-11-15T07:20:05;5.49;99.99
68189;DHT22;55008;47.514;19.218;2022-11-15T07:22:35;5.52;99.99
68189;DHT22;55008;47.514;19.218;2022-11-15T07:25:08;5.58;99.95
68189;DHT22;55008;47.514;19.218;2022-11-15T07:27:40;5.63;99.93
68189;DHT22;55008;47.514;19.218;2022-11-15T07:30:14;5.69;99.72
68189;DHT22;55008;47.514;19.218;2022-11-15T07:32:52;5.80;99.28
68189;DHT22;55008;47.514;19.218;2022-11-15T07:35:20;5.83;99.68
68189;DHT22;55008;47.514;19.218;2022-11-15T07:37:55;5.86;99.54
68189;DHT22;55008;47.514;19.218;2022-11-15T07:40:25;6.06;99.08
68189;DHT22;55008;47.514;19.218;2022-11-15T07:43:00;6.16;98.63
68189;DHT22;55008;47.514;19.218;2022-11-15T07:45:43;6.16;98.45
68189;DHT22;55008;47.514;19.218;2022-11-15T07:48:19;6.24;98.26
68189;DHT22;55008;47.514;19.218;2022-11-15T07:50:52;6.24;98.46
68189;DHT22;55008;47.514;19.218;2022-11-15T07:53:22;6.27;98.51
68189;DHT22;55008;47.514;19.218;2022-11-15T07:55:50;6.35;97.81
68189;DHT22;55008;47.514;19.218;2022-11-15T07:58:27;6.38;97.70
68189;DHT22;55008;47.514;19.218;2022-11-15T08:00:57;6.49;97.09
68189;DHT22;55008;47.514;19.218;2022-11-15T08:03:36;6.56;97.23
68189;DHT22;55008;47.514;19.218;2022-11-15T08:06:05;6.61;97.00
68189;DHT22;55008;47.514;19.218;2022-11-15T08:08:33;6.69;97.07
68189;DHT22;55008;47.514;19.218;2022-11-15T08:11:02;6.73;96.71
68189;DHT22;55008;47.514;19.218;2022-11-15T08:13:30;6.76;97.00
68189;DHT22;55008;47.514;19.218;2022-11-15T08:15:59;6.85;97.17
68189;DHT22;55008;47.514;19.218;2022-11-15T08:18:28;6.83;96.55
68189;DHT22;55008;47.514;19.218;2022-11-15T08:21:04;6.89;96.33
68189;DHT22;55008;47.514;19.218;2022-11-15T08:23:33;6.85;96.59
68189;DHT22;55008;47.514;19.218;2022-11-15T08:26:02;6.90;96.37
68189;DHT22;55008;47.514;19.218;2022-11-15T08:28:32;6.86;96.50
68189;DHT22;55008;47.514;19.218;2022-11-15T08:31:00;6.87;96.95
68189;DHT22;55008;47.514;19.218;2022-11-15T08:33:29;6.93;97.10
68189;DHT22;55008;47.514;19.218;2022-11-15T08:35:59;6.99;97.12
68189;DHT22;55008;47.514;19.218;2022-11-15T08:38:30;7.13;97.01
68189;DHT22;55008;47.514;19.218;2022-11-15T08:41:02;7.17;96.37
68189;DHT22;55008;47.514;19.218;2022-11-15T08:43:31;7.11;97.36
68189;DHT22;55008;47.514;19.218;2022-11-15T08:46:00;7.15;97.00
68189;DHT22;55008;47.514;19.218;2022-11-15T08:48:29;7.20;96.42
68189;DHT22;55008;47.514;19.218;2022-11-15T08:50:58;7.21;96.25
68189;DHT22;55008;47.514;19.218;2022-11-15T08:53:27;7.35;96.29
68189;DHT22;55008;47.514;19.218;2022-11-15T08:55:56;7.34;96.12
68189;DHT22;55008;47.514;19.218;2022-11-15T08:58:25;7.40;95.89
68189;DHT22;55008;47.514;19.218;2022-11-15T09:00:54;7.47;95.05
68189;DHT22;55008;47.514;19.218;2022-11-15T09:03:23;7.50;94.84
68189;DHT22;55008;47.514;19.218;2022-11-15T09:05:54;7.42;95.75
68189;DHT22;55008;47.514;19.218;2022-11-15T09:08:24;7.41;96.18
68189;DHT22;55008;47.514;19.218;2022-11-15T09:11:14;7.44;95.83
68189;DHT22;55008;47.514;19.218;2022-11-15T09:13:43;7.54;95.45
68189;DHT22;55008;47.514;19.218;2022-11-15T09:16:11;7.61;94.99
68189;DHT22;55008;47.514;19.218;2022-11-15T09:18:42;7.65;94.86
68189;DHT22;55008;47.514;19.218;2022-11-15T09:21:11;7.79;95.00
68189;DHT22;55008;47.514;19.218;2022-11-15T09:23:40;7.78;96.08
68189;DHT22;55008;47.514;19.218;2022-11-15T09:26:09;7.76;95.50
68189;DHT22;55008;47.514;19.218;2022-11-15T09:28:39;7.82;95.51
68189;DHT22;55008;47.514;19.218;2022-11-15T09:31:09;7.93;95.56
68189;DHT22;55008;47.514;19.218;2022-11-15T09:33:39;7.96;95.40
68189;DHT22;55008;47.514;19.218;2022-11-15T09:36:09;7.89;96.34
68189;DHT22;55008;47.514;19.218;2022-11-15T09:38:38;7.89;96.17
68189;DHT22;55008;47.514;19.218;2022-11-15T09:41:36;8.02;95.40
68189;DHT22;55008;47.514;19.218;2022-11-15T09:44:25;8.09;95.42
68189;DHT22;55008;47.514;19.218;2022-11-15T09:47:10;8.10;95.30
68189;DHT22;55008;47.514;19.218;2022-11-15T09:49:44;8.06;96.12
68189;DHT22;55008;47.514;19.218;2022-11-15T09:52:19;8.04;95.62
68189;DHT22;55008;47.514;19.218;2022-11-15T09:54:51;8.03;95.56
68189;DHT22;55008;47.514;19.218;2022-11-15T09:57:30;8.02;95.92
68189;DHT22;55008;47.514;19.218;2022-11-15T10:00:07;8.02;96.30
68189;DHT22;55008;47.514;19.218;2022-11-15T10:03:11;8.11;95.92
68189;DHT22;55008;47.514;19.218;2022-11-15T10:05:42;8.03;96.35
68189;DHT22;55008;47.514;19.218;2022-11-15T10:08:25;8.10;96.06
68189;DHT22;55008;47.514;19.218;2022-11-15T10:10:58;8.13;96.21
68189;DHT22;55008;47.514;19.218;2022-11-15T10:13:49;8.14;96.46
68189;DHT22;55008;47.514;19.218;2022-11-15T10:16:42;8.17;96.26
68189;DHT22;55008;47.514;19.218;2022-11-15T10:19:23;8.20;95.28
68189;DHT22;55008;47.514;19.218;2022-11-15T10:22:02;8.19;95.81
68189;DHT22;55008;47.514;19.218;2022-11-15T10:24:41;8.09;96.44
68189;DHT22;55008;47.514;19.218;2022-11-15T10:27:11;8.14;96.29
68189;DHT22;55008;47.514;19.218;2022-11-15T10:29:44;8.13;96.53
68189;DHT22;55008;47.514;19.218;2022-11-15T10:32:19;8.17;96.25
68189;DHT22;55008;47.514;19.218;2022-11-15T10:34:56;8.00;96.98
68189;DHT22;55008;47.514;19.218;2022-11-15T10:37:28;7.92;97.07
68189;DHT22;55008;47.514;19.218;2022-11-15T10:40:04;7.99;96.62
68189;DHT22;55008;47.514;19.218;2022-11-15T10:42:33;7.94;96.66
68189;DHT22;55008;47.514;19.218;2022-11-15T10:45:23;7.92;96.92
68189;DHT22;55008;47.514;19.218;2022-11-15T10:48:19;7.87;97.14
68189;DHT22;55008;47.514;19.218;2022-11-15T10:50:50;7.89;97.77
68189;DHT22;55008;47.514;19.218;2022-11-15T10:53:25;7.79;97.79
68189;DHT22;55008;47.514;19.218;2022-11-15T10:55:58;7.89;97.26
68189;DHT22;55008;47.514;19.218;2022-11-15T10:58:35;7.93;96.83
68189;DHT22;55008;47.514;19.218;2022-11-15T11:01:14;7.99;96.96
68189;DHT22;55008;47.514;19.218;2022-11-15T11:03:45;7.97;96.75
68189;DHT22;55008;47.514;19.218;2022-11-15T11:06:25;8.02;96.97
68189;DHT22;55008;47.514;19.218;2022-11-15T11:08:56;8.06;96.96
68189;DHT22;55008;47.514;19.218;2022-11-15T11:11:25;7.90;97.36
68189;DHT22;55008;47.514;19.218;2022-11-15T11:13:53;7.82;97.62
68189;DHT22;55008;47.514;19.218;2022-11-15T11:16:42;7.73;97.42
68189;DHT22;55008;47.514;19.218;2022-11-15T11:22:06;7.82;98.23
68189;DHT22;55008;47.514;19.218;2022-11-15T11:24:44;7.93;98.06
68189;DHT22;55008;47.514;19.218;2022-11-15T11:27:22;7.97;97.97
68189;DHT22;55008;47.514;19.218;2022-11-15T11:30:06;8.16;97.23
68189;DHT22;55008;47.514;19.218;2022-11-15T11:32:51;8.17;97.26
68189;DHT22;55008;47.514;19.218;2022-11-15T11:35:28;8.17;97.09
68189;DHT22;55008;47.514;19.218;2022-11-15T11:38:11;8.19;97.08
68189;DHT22;55008;47.514;19.218;2022-11-15T11:40:48;8.20;97.42
68189;DHT22;55008;47.514;19.218;2022-11-15T11:43:26;8.11;97.25
68189;DHT22;55008;47.514;19.218;2022-11-15T11:46:18;8.11;96.60
68189;DHT22;55008;47.514;19.218;2022-11-15T11:48:57;8.02;97.52
68189;DHT22;55008;47.514;19.218;2022-11-15T11:51:36;8.06;96.99
68189;DHT22;55008;47.514;19.218;2022-11-15T11:54:12;8.02;97.03
68189;DHT22;55008;47.514;19.218;2022-11-15T11:56:44;8.02;97.25
68189;DHT22;55008;47.514;19.218;2022-11-15T11:59:19;7.93;97.74
68189;DHT22;55008;47.514;19.218;2022-11-15T12:01:50;7.99;97.65
68189;DHT22;55008;47.514;19.218;2022-11-15T12:04:23;7.96;97.69
68189;DHT22;55008;47.514;19.218;2022-11-15T12:06:59;7.82;98.01
68189;DHT22;55008;47.514;19.218;2022-11-15T12:09:33;7.78;98.16
68189;DHT22;55008;47.514;19.218;2022-11-15T12:12:08;7.87;97.67
68189;DHT22;55008;47.514;19.218;2022-11-15T12:14:45;7.81;97.96
68189;DHT22;55008;47.514;19.218;2022-11-15T12:17:16;7.81;97.43
68189;DHT22;55008;47.514;19.218;2022-11-15T12:19:47;7.75;97.78
68189;DHT22;55008;47.514;19.218;2022-11-15T12:22:20;7.71;96.96
68189;DHT22;55008;47.514;19.218;2022-11-15T12:24:54;7.63;97.46
68189;DHT22;55008;47.514;19.218;2022-11-15T12:27:32;7.71;97.46
68189;DHT22;55008;47.514;19.218;2022-11-15T12:30:11;7.68;97.66
68189;DHT22;55008;47.514;19.218;2022-11-15T12:32:52;7.59;98.50
68189;DHT22;55008;47.514;19.218;2022-11-15T12:35:26;7.56;98.07
68189;DHT22;55008;47.514;19.218;2022-11-15T12:37:56;7.62;98.17
68189;DHT22;55008;47.514;19.218;2022-11-15T12:40:34;7.56;98.48
68189;DHT22;55008;47.514;19.218;2022-11-15T12:46:04;7.47;98.31
68189;DHT22;55008;47.514;19.218;2022-11-15T12:48:49;7.44;97.95
68189;DHT22;55008;47.514;19.218;2022-11-15T12:51:21;7.41;98.43
68189;DHT22;55008;47.514;19.218;2022-11-15T12:53:50;7.45;97.76
68189;DHT22;55008;47.514;19.218;2022-11-15T12:56:23;7.47;97.54
68189;DHT22;55008;47.514;19.218;2022-11-15T12:58:55;7.55;97.05
68189;DHT22;55008;47.514;19.218;2022-11-15T13:01:55;7.41;97.75
68189;DHT22;55008;47.514;19.218;2022-11-15T13:04:27;7.32;98.31
68189;DHT22;55008;47.514;19.218;2022-11-15T13:06:58;7.32;98.43
68189;DHT22;55008;47.514;19.218;2022-11-15T13:09:52;7.40;98.10
68189;DHT22;55008;47.514;19.218;2022-11-15T13:12:49;7.38;98.13
68189;DHT22;55008;47.514;19.218;2022-11-15T13:15:51;7.36;97.88
68189;DHT22;55008;47.514;19.218;2022-11-15T13:18:38;7.38;98.05
68189;DHT22;55008;47.514;19.218;2022-11-15T13:21:21;7.20;98.51
68189;DHT22;55008;47.514;19.218;2022-11-15T13:24:12;7.27;98.77
68189;DHT22;55008;47.514;19.218;2022-11-15T13:26:43;7.30;99.03
68189;DHT22;55008;47.514;19.218;2022-11-15T13:29:17;7.47;98.73
68189;DHT22;55008;47.514;19.218;2022-11-15T13:31:46;7.54;98.51
68189;DHT22;55008;47.514;19.218;2022-11-15T13:34:27;7.56;98.32
68189;DHT22;55008;47.514;19.218;2022-11-15T13:37:30;7.55;98.79
68189;DHT22;55008;47.514;19.218;2022-11-15T13:40:20;7.55;98.47
68189;DHT22;55008;47.514;19.218;2022-11-15T13:42:54;7.55;98.98
68189;DHT22;55008;47.514;19.218;2022-11-15T13:45:33;7.61;98.66
68189;DHT22;55008;47.514;19.218;2022-11-15T13:48:07;7.55;98.62
68189;DHT22;55008;47.514;19.218;2022-11-15T13:50:44;7.52;99.36
68189;DHT22;55008;47.514;19.218;2022-11-15T13:53:14;7.50;99.06
68189;DHT22;55008;47.514;19.218;2022-11-15T13:55:46;7.58;98.92
68189;DHT22;55008;47.514;19.218;2022-11-15T13:58:22;7.56;99.03
68189;DHT22;55008;47.514;19.218;2022-11-15T14:00:59;7.52;98.67
68189;DHT22;55008;47.514;19.218;2022-11-15T14:03:31;7.45;99.25
68189;DHT22;55008;47.514;19.218;2022-11-15T14:06:09;7.52;98.78
68189;DHT22;55008;47.514;19.218;2022-11-15T14:08:40;7.48;98.74
68189;DHT22;55008;47.514;19.218;2022-11-15T14:11:13;7.52;98.84
68189;DHT22;55008;47.514;19.218;2022-11-15T14:14:09;7.44;99.24
68189;DHT22;55008;47.514;19.218;2022-11-15T14:16:45;7.41;98.59
68189;DHT22;55008;47.514;19.218;2022-11-15T14:19:34;7.32;99.21
68189;DHT22;55008;47.514;19.218;2022-11-15T14:22:12;7.25;99.43
68189;DHT22;55008;47.514;19.218;2022-11-15T14:24:43;7.23;99.43
68189;DHT22;55008;47.514;19.218;2022-11-15T14:27:27;7.28;99.36
68189;DHT22;55008;47.514;19.218;2022-11-15T14:30:02;7.24;99.33
68189;DHT22;55008;47.514;19.218;2022-11-15T14:32:43;7.28;99.55
68189;DHT22;55008;47.514;19.218;2022-11-15T14:35:17;7.25;99.56
68189;DHT22;55008;47.514;19.218;2022-11-15T14:37:49;7.24;99.52
68189;DHT22;55008;47.514;19.218;2022-11-15T14:40:20;7.23;99.29
68189;DHT22;55008;47.514;19.218;2022-11-15T14:42:49;7.21;99.54
68189;DHT22;55008;47.514;19.218;2022-11-15T14:45:28;7.21;99.80
68189;DHT22;55008;47.514;19.218;2022-11-15T14:47:58;7.21;99.73
68189;DHT22;55008;47.514;19.218;2022-11-15T14:50:28;7.21;99.65
68189;DHT22;55008;47.514;19.218;2022-11-15T14:52:58;7.18;99.22
68189;DHT22;55008;47.514;19.218;2022-11-15T14:55:27;7.17;99.38
68189;DHT22;55008;47.514;19.218;2022-11-15T14:57:58;7.15;99.49
68189;DHT22;55008;47.514;19.218;2022-11-15T15:00:37;7.14;99.14
68189;DHT22;55008;47.514;19.218;2022-11-15T15:03:08;7.17;99.25
68189;DHT22;55008;47.514;19.218;2022-11-15T15:05:38;7.15;99.32
68189;DHT22;55008;47.514;19.218;2022-11-15T15:08:10;7.11;99.37
68189;DHT22;55008;47.514;19.218;2022-11-15T15:10:44;7.10;99.91
68189;DHT22;55008;47.514;19.218;2022-11-15T15:13:18;7.11;99.85
68189;DHT22;55008;47.514;19.218;2022-11-15T15:15:51;7.11;99.82
68189;DHT22;55008;47.514;19.218;2022-11-15T15:18:22;7.08;99.56
68189;DHT22;55008;47.514;19.218;2022-11-15T15:20:55;7.13;99.54
68189;DHT22;55008;47.514;19.218;2022-11-15T15:23:31;7.14;99.35
68189;DHT22;55008;47.514;19.218;2022-11-15T15:26:04;7.11;99.57
68189;DHT22;55008;47.514;19.218;2022-11-15T15:28:32;7.04;99.99
68189;DHT22;55008;47.514;19.218;2022-11-15T15:31:04;6.99;99.99
68189;DHT22;55008;47.514;19.218;2022-11-15T15:33:32;7.04;99.99
68189;DHT22;55008;47.514;19.218;2022-11-15T15:36:01;7.00;99.99
68189;DHT22;55008;47.514;19.218;2022-11-15T15:38:33;7.03;99.99
68189;DHT22;55008;47.514;19.218;2022-11-15T15:41:06;7.07;99.87
68189;DHT22;55008;47.514;19.218;2022-11-15T15:43:36;6.99;99.99
68189;DHT22;55008;47.514;19.218;2022-11-15T15:46:10;6.92;99.99
68189;DHT22;55008;47.514;19.218;2022-11-15T15:48:39;6.94;99.99
68189;DHT22;55008;47.514;19.218;2022-11-15T15:51:10;6.96;99.99
68189;DHT22;55008;47.514;19.218;2022-11-15T15:53:53;6.97;99.99
68189;DHT22;55008;47.514;19.218;2022-11-15T15:56:25;6.97;99.99
68189;DHT22;55008;47.514;19.218;2022-11-15T15:58:57;7.00;99.99
68189;DHT22;55008;47.514;19.218;2022-11-15T16:01:33;6.94;99.99
68189;DHT22;55008;47.514;19.218;2022-11-15T16:04:09;6.99;99.99
68189;DHT22;55008;47.514;19.218;2022-11-15T16:06:41;6.99;99.99
68189;DHT22;55008;47.514;19.218;2022-11-15T16:09:15;6.96;99.99
68189;DHT22;55008;47.514;19.218;2022-11-15T16:11:45;6.96;99.99
68189;DHT22;55008;47.514;19.218;2022-11-15T16:14:17;6.94;99.99
68189;DHT22;55008;47.514;19.218;2022-11-15T16:16:49;6.90;99.99
68189;DHT22;55008;47.514;19.218;2022-11-15T16:19:23;6.94;99.99
68189;DHT22;55008;47.514;19.218;2022-11-15T16:21:56;6.94;99.99
68189;DHT22;55008;47.514;19.218;2022-11-15T16:24:25;6.99;99.99